createdAt,value
2022-11-20T00:01:18.094Z,13.70
2022-11-20T00:03:45.479Z,13.63
2022-11-20T00:06:14.994Z,12.23
2022-11-20T00:08:41.990Z,14.83
2022-11-20T00:11:15.450Z,12.97
2022-11-20T00:13:43.199Z,14.23
2022-11-20T00:16:12.129Z,14.17
2022-11-20T00:18:38.973Z,12.23
2022-11-20T00:21:08.356Z,13.20
2022-11-20T00:23:35.571Z,15.50
2022-11-20T00:26:04.913Z,12.20
2022-11-20T00:28:32.020Z,12.80
2022-11-20T00:31:06.776Z,12.93
2022-11-20T00:33:33.894Z,11.33
2022-11-20T00:36:06.146Z,12.70
2022-11-20T00:38:33.833Z,10.97
2022-11-20T00:41:03.148Z,11.23
2022-11-20T00:43:30.027Z,12.57
2022-11-20T00:46:01.122Z,11.50
2022-11-20T00:48:28.134Z,12.47
2022-11-20T00:50:55.216Z,12.80
2022-11-20T00:53:22.546Z,12.53
2022-11-20T00:55:59.947Z,10.47
2022-11-20T00:58:30.749Z,12.80
2022-11-20T01:01:08.012Z,11.33
2022-11-20T01:03:37.073Z,12.00
2022-11-20T01:06:07.151Z,12.47
2022-11-20T01:08:35.392Z,12.27
2022-11-20T01:11:03.887Z,11.73
2022-11-20T01:13:38.039Z,11.50
2022-11-20T01:16:15.513Z,11.57
2022-11-20T01:18:44.476Z,10.80
2022-11-20T01:21:17.950Z,12.37
2022-11-20T01:23:46.602Z,10.73
2022-11-20T01:26:16.433Z,10.87
2022-11-20T01:28:43.375Z,11.37
2022-11-20T01:31:20.623Z,11.83
2022-11-20T01:33:49.592Z,11.63
2022-11-20T01:36:17.865Z,10.90
2022-11-20T01:38:45.193Z,10.23
2022-11-20T01:41:37.005Z,11.20
2022-11-20T01:44:05.333Z,10.07
2022-11-20T01:46:36.380Z,9.90
2022-11-20T01:49:09.049Z,10.80
2022-11-20T01:52:11.153Z,10.03
2022-11-20T01:54:45.043Z,11.40
2022-11-20T01:57:14.866Z,11.77
2022-11-20T01:59:48.869Z,11.27
2022-11-20T02:02:16.007Z,11.57
2022-11-20T02:04:42.884Z,11.40
2022-11-20T02:07:10.026Z,12.13
2022-11-20T02:09:36.827Z,12.20
2022-11-20T02:12:04.734Z,12.97
2022-11-20T02:14:31.646Z,13.03
2022-11-20T02:16:58.654Z,12.07
2022-11-20T02:19:31.804Z,11.90
2022-11-20T02:22:15.244Z,12.70
2022-11-20T02:24:44.830Z,12.63
2022-11-20T02:27:13.905Z,12.50
2022-11-20T02:29:46.987Z,13.60
2022-11-20T02:32:31.155Z,13.40
2022-11-20T02:34:58.146Z,11.30
2022-11-20T02:37:31.464Z,11.37
2022-11-20T02:39:58.526Z,11.70
2022-11-20T02:42:25.260Z,12.17
2022-11-20T02:44:51.944Z,10.07
2022-11-20T02:47:18.703Z,9.13
2022-11-20T02:49:45.425Z,7.10
2022-11-20T02:52:12.184Z,6.27
2022-11-20T02:54:38.980Z,6.43
2022-11-20T02:57:05.855Z,5.20
2022-11-20T02:59:32.645Z,5.90
2022-11-20T03:01:59.340Z,5.03
2022-11-20T03:04:26.109Z,5.27
2022-11-20T03:06:52.917Z,4.67
2022-11-20T03:09:19.932Z,5.30
2022-11-20T03:11:46.820Z,5.10
2022-11-20T03:14:13.513Z,6.20
2022-11-20T03:16:40.372Z,4.73
2022-11-20T03:19:07.202Z,4.10
2022-11-20T03:21:36.964Z,3.60
2022-11-20T03:24:04.376Z,4.10
2022-11-20T03:26:32.453Z,4.33
2022-11-20T03:29:01.450Z,4.17
2022-11-20T03:31:31.436Z,3.73
2022-11-20T03:33:59.663Z,4.53
2022-11-20T03:36:27.182Z,4.07
2022-11-20T03:38:55.675Z,3.70
2022-11-20T03:41:24.894Z,4.33
2022-11-20T03:43:54.716Z,4.37
2022-11-20T03:46:21.810Z,4.27
2022-11-20T03:48:51.997Z,4.03
2022-11-20T03:51:24.626Z,3.80
2022-11-20T03:53:53.114Z,3.80
2022-11-20T03:56:25.084Z,4.67
2022-11-20T03:58:52.346Z,3.60
2022-11-20T04:01:22.137Z,5.77
2022-11-20T04:03:49.734Z,4.23
2022-11-20T04:06:19.696Z,4.47
2022-11-20T04:08:52.392Z,4.40
2022-11-20T04:11:23.274Z,3.80
2022-11-20T04:13:58.630Z,3.70
2022-11-20T04:16:26.493Z,4.47
2022-11-20T04:18:58.931Z,4.40
2022-11-20T04:21:26.653Z,5.07
2022-11-20T04:23:54.680Z,5.10
2022-11-20T04:26:23.584Z,4.30
2022-11-20T04:28:50.812Z,3.80
2022-11-20T04:31:20.589Z,3.63
2022-11-20T04:33:47.994Z,4.97
2022-11-20T04:36:17.229Z,4.17
2022-11-20T04:38:44.632Z,4.20
2022-11-20T04:41:17.008Z,3.60
2022-11-20T04:43:49.506Z,4.13
2022-11-20T04:46:21.102Z,3.80
2022-11-20T04:48:48.727Z,3.97
2022-11-20T04:51:15.793Z,4.60
2022-11-20T04:53:43.216Z,4.17
2022-11-20T04:56:12.056Z,4.97
2022-11-20T04:58:39.524Z,4.37
2022-11-20T05:01:14.012Z,4.77
2022-11-20T05:03:43.014Z,4.43
2022-11-20T05:06:11.838Z,4.70
2022-11-20T05:08:38.590Z,3.73
2022-11-20T05:11:08.643Z,4.27
2022-11-20T05:13:35.435Z,4.00
2022-11-20T05:16:07.495Z,4.10
2022-11-20T05:18:35.408Z,4.23
2022-11-20T05:21:02.316Z,4.57
2022-11-20T05:23:30.875Z,4.10
2022-11-20T05:25:59.339Z,3.70
2022-11-20T05:28:27.353Z,4.53
2022-11-20T05:30:54.155Z,4.27
2022-11-20T05:33:21.157Z,4.40
2022-11-20T05:35:49.085Z,4.10
2022-11-20T05:38:16.305Z,4.37
2022-11-20T05:40:43.070Z,4.10
2022-11-20T05:43:09.826Z,4.20
2022-11-20T05:45:36.656Z,4.00
2022-11-20T05:48:03.742Z,4.00
2022-11-20T05:50:31.103Z,4.20
2022-11-20T05:53:01.627Z,3.70
2022-11-20T05:55:28.605Z,3.93
2022-11-20T05:57:56.126Z,4.00
2022-11-20T06:00:23.385Z,3.73
2022-11-20T06:02:50.329Z,4.23
2022-11-20T06:05:17.171Z,3.50
2022-11-20T06:07:44.113Z,6.00
2022-11-20T06:10:11.689Z,7.70
2022-11-20T06:12:38.506Z,3.60
2022-11-20T06:15:06.566Z,3.97
2022-11-20T06:17:33.327Z,4.03
2022-11-20T06:19:59.964Z,3.60
2022-11-20T06:22:26.957Z,3.47
2022-11-20T06:24:53.716Z,4.03
2022-11-20T06:27:20.527Z,4.03
2022-11-20T06:29:47.290Z,3.47
2022-11-20T06:32:13.993Z,3.93
2022-11-20T06:34:40.789Z,3.63
2022-11-20T06:37:07.460Z,4.00
2022-11-20T06:39:34.235Z,4.07
2022-11-20T06:42:00.911Z,7.00
2022-11-20T06:44:27.636Z,3.07
2022-11-20T06:46:54.301Z,3.20
2022-11-20T06:49:21.317Z,3.77
2022-11-20T06:51:48.295Z,2.93
2022-11-20T06:54:15.399Z,3.50
2022-11-20T06:56:42.064Z,3.23
2022-11-20T06:59:08.909Z,3.63
2022-11-20T07:01:36.031Z,3.90
2022-11-20T07:04:04.186Z,3.70
2022-11-20T07:06:31.210Z,3.50
2022-11-20T07:08:58.159Z,3.13
2022-11-20T07:11:25.087Z,3.47
2022-11-20T07:13:52.179Z,3.20
2022-11-20T07:16:18.949Z,3.43
2022-11-20T07:18:50.238Z,3.20
2022-11-20T07:21:18.018Z,2.80
2022-11-20T07:23:44.737Z,3.07
2022-11-20T07:26:12.251Z,3.37
2022-11-20T07:28:39.379Z,3.77
2022-11-20T07:31:07.796Z,3.50
2022-11-20T07:33:34.830Z,3.40
2022-11-20T07:36:02.245Z,3.70
2022-11-20T07:38:29.627Z,5.20
2022-11-20T07:41:02.508Z,3.13
2022-11-20T07:43:29.367Z,3.10
2022-11-20T07:45:57.583Z,3.00
2022-11-20T07:48:24.798Z,3.03
2022-11-20T07:50:55.749Z,2.83
2022-11-20T07:53:22.799Z,3.07
2022-11-20T07:55:49.600Z,3.40
2022-11-20T07:58:16.365Z,3.93
2022-11-20T08:00:43.140Z,4.10
2022-11-20T08:03:09.888Z,3.20
2022-11-20T08:05:36.551Z,3.27
2022-11-20T08:08:03.320Z,2.60
2022-11-20T08:10:30.074Z,3.60
2022-11-20T08:13:15.514Z,3.00
2022-11-20T08:15:42.220Z,4.20
2022-11-20T08:18:31.789Z,2.83
2022-11-20T08:21:03.303Z,2.43
2022-11-20T08:23:29.990Z,2.70
2022-11-20T08:25:56.687Z,3.93
2022-11-20T08:28:23.431Z,3.93
2022-11-20T08:30:51.407Z,2.93
2022-11-20T08:33:18.965Z,3.03
2022-11-20T08:35:46.306Z,3.53
2022-11-20T08:38:13.028Z,3.00
2022-11-20T08:40:39.755Z,3.53
2022-11-20T08:43:06.515Z,4.60
2022-11-20T08:45:35.065Z,2.60
2022-11-20T08:48:05.623Z,3.33
2022-11-20T08:50:33.962Z,2.93
2022-11-20T08:53:05.762Z,2.83
2022-11-20T08:55:33.094Z,2.90
2022-11-20T08:58:04.383Z,2.97
2022-11-20T09:00:31.195Z,2.50
2022-11-20T09:02:59.483Z,3.57
2022-11-20T09:05:26.306Z,2.63
2022-11-20T09:07:52.987Z,2.67
2022-11-20T09:10:24.379Z,1.97
2022-11-20T09:12:52.865Z,2.00
2022-11-20T09:15:20.190Z,2.43
2022-11-20T09:17:52.911Z,6.00
2022-11-20T09:20:20.164Z,2.20
2022-11-20T09:22:47.312Z,3.80
2022-11-20T09:25:14.275Z,2.20
2022-11-20T09:27:42.568Z,1.87
2022-11-20T09:30:09.793Z,1.70
2022-11-20T09:32:36.844Z,4.30
2022-11-20T09:35:03.688Z,1.80
2022-11-20T09:37:30.475Z,2.20
2022-11-20T09:39:57.190Z,1.93
2022-11-20T09:42:29.974Z,1.90
2022-11-20T09:45:16.518Z,1.87
2022-11-20T09:47:49.088Z,1.70
2022-11-20T09:50:34.020Z,1.80
2022-11-20T09:53:19.603Z,1.80
2022-11-20T09:55:47.238Z,1.80
2022-11-20T09:58:25.694Z,1.70
2022-11-20T10:00:57.459Z,1.60
2022-11-20T10:04:07.241Z,2.73
2022-11-20T10:06:40.704Z,1.83
2022-11-20T10:09:13.346Z,2.00
2022-11-20T10:11:46.200Z,2.17
2022-11-20T10:14:37.888Z,1.50
2022-11-20T10:17:10.758Z,1.70
2022-11-20T10:19:53.783Z,1.70
2022-11-20T10:23:14.236Z,1.70
2022-11-20T10:25:50.690Z,1.70
2022-11-20T10:28:36.022Z,1.90
2022-11-20T10:31:11.323Z,2.23
2022-11-20T10:34:05.157Z,1.63
2022-11-20T10:36:39.785Z,2.07
2022-11-20T10:39:23.335Z,1.70
2022-11-20T10:41:53.620Z,2.07
2022-11-20T10:44:47.718Z,1.80
2022-11-20T10:47:19.810Z,1.50
2022-11-20T10:49:56.381Z,1.70
2022-11-20T10:52:26.225Z,1.97
2022-11-20T10:55:13.658Z,1.60
2022-11-20T10:57:43.488Z,2.13
2022-11-20T11:00:14.878Z,1.90
2022-11-20T11:02:48.973Z,2.47
2022-11-20T11:05:27.061Z,3.00
2022-11-20T11:07:56.806Z,2.47
2022-11-20T11:10:29.476Z,1.93
2022-11-20T11:12:56.319Z,1.83
2022-11-20T11:15:37.820Z,1.73
2022-11-20T11:18:04.817Z,2.20
2022-11-20T11:20:32.724Z,2.40
2022-11-20T11:23:00.552Z,5.17
2022-11-20T11:25:35.756Z,2.53
2022-11-20T11:28:18.894Z,2.20
2022-11-20T11:30:46.234Z,2.63
2022-11-20T11:33:31.067Z,2.20
2022-11-20T11:36:01.166Z,2.67
2022-11-20T11:38:41.022Z,2.37
2022-11-20T11:41:14.530Z,4.50
2022-11-20T11:44:09.076Z,2.67
2022-11-20T11:46:38.142Z,2.10
2022-11-20T11:49:10.901Z,2.30
2022-11-20T11:52:05.918Z,2.67
2022-11-20T11:54:50.601Z,2.27
2022-11-20T11:57:29.881Z,3.43
2022-11-20T12:00:02.480Z,2.27
2022-11-20T12:03:03.839Z,2.40
2022-11-20T12:05:39.789Z,2.20
2022-11-20T12:08:41.300Z,2.97
2022-11-20T12:11:17.531Z,2.90
2022-11-20T12:14:05.291Z,4.47
2022-11-20T12:16:37.755Z,2.00
2022-11-20T12:19:11.235Z,3.83
2022-11-20T12:21:56.167Z,3.10
2022-11-20T12:24:36.923Z,4.17
2022-11-20T12:27:32.270Z,3.30
2022-11-20T12:30:22.579Z,2.80
2022-11-20T12:33:34.075Z,2.77
2022-11-20T12:36:18.634Z,2.33
2022-11-20T12:39:09.929Z,3.80
2022-11-20T12:42:19.915Z,2.37
2022-11-20T12:45:18.967Z,3.87
2022-11-20T12:48:10.669Z,2.50
2022-11-20T12:51:17.908Z,2.47
2022-11-20T12:54:17.151Z,2.27
2022-11-20T12:56:48.920Z,2.73
2022-11-20T12:59:15.997Z,4.37
2022-11-20T13:02:31.138Z,2.90
2022-11-20T13:04:58.017Z,2.50
2022-11-20T13:07:27.145Z,3.07
2022-11-20T13:09:55.462Z,2.20
2022-11-20T13:12:46.989Z,2.30
2022-11-20T13:15:40.306Z,2.47
2022-11-20T13:18:11.583Z,2.40
2022-11-20T13:20:44.261Z,2.30
2022-11-20T13:23:11.232Z,3.20
2022-11-20T13:25:40.198Z,3.47
2022-11-20T13:28:31.243Z,3.27
2022-11-20T13:30:59.723Z,2.97
2022-11-20T13:33:36.138Z,3.53
2022-11-20T13:36:27.538Z,2.13
2022-11-20T13:38:57.047Z,3.03
2022-11-20T13:41:36.480Z,2.10
2022-11-20T13:44:38.771Z,2.00
2022-11-20T13:47:23.500Z,2.77
2022-11-20T13:49:52.390Z,2.10
2022-11-20T13:52:50.638Z,2.37
2022-11-20T13:55:43.710Z,2.17
2022-11-20T13:58:32.984Z,2.13
2022-11-20T14:01:09.367Z,2.03
2022-11-20T14:04:07.230Z,2.50
2022-11-20T14:06:30.019Z,2.70
2022-11-20T14:08:57.713Z,2.37
2022-11-20T14:11:30.388Z,2.93
2022-11-20T14:14:04.115Z,2.90
2022-11-20T14:16:33.968Z,3.73
2022-11-20T14:19:20.723Z,2.10
2022-11-20T14:21:54.353Z,2.50
2022-11-20T14:24:26.176Z,2.03
2022-11-20T14:26:53.778Z,2.03
2022-11-20T14:29:25.080Z,1.90
2022-11-20T14:31:56.681Z,2.10
2022-11-20T14:34:29.583Z,3.60
2022-11-20T14:37:16.358Z,2.40
2022-11-20T14:39:50.235Z,2.00
2022-11-20T14:42:28.966Z,2.70
2022-11-20T14:44:59.760Z,2.30
2022-11-20T14:47:30.346Z,2.60
2022-11-20T14:49:58.969Z,3.17
2022-11-20T14:52:28.611Z,2.03
2022-11-20T14:55:00.641Z,3.10
2022-11-20T14:57:29.153Z,1.73
2022-11-20T15:00:14.106Z,2.77
2022-11-20T15:02:44.250Z,3.23
2022-11-20T15:05:14.417Z,2.43
2022-11-20T15:07:47.249Z,3.90
2022-11-20T15:10:20.280Z,3.03
2022-11-20T15:12:50.881Z,3.67
2022-11-20T15:15:24.543Z,4.70
2022-11-20T15:17:51.668Z,3.10
2022-11-20T15:20:19.245Z,3.07
2022-11-20T15:22:47.351Z,2.67
2022-11-20T15:25:17.109Z,2.63
2022-11-20T15:27:45.099Z,4.20
2022-11-20T15:30:19.080Z,3.50
2022-11-20T15:32:47.321Z,3.50
2022-11-20T15:35:15.496Z,4.50
2022-11-20T15:37:43.043Z,7.33
2022-11-20T15:40:10.710Z,5.20
2022-11-20T15:42:37.636Z,15.80
2022-11-20T15:45:05.044Z,5.20
2022-11-20T15:47:35.243Z,3.63
2022-11-20T15:50:03.667Z,5.10
2022-11-20T15:52:40.421Z,2.47
2022-11-20T15:55:12.433Z,3.37
2022-11-20T15:57:39.401Z,2.23
2022-11-20T16:00:07.199Z,3.10
2022-11-20T16:02:34.818Z,3.07
2022-11-20T16:05:01.661Z,2.37
2022-11-20T16:07:28.421Z,2.90
2022-11-20T16:09:57.654Z,2.63
2022-11-20T16:12:43.005Z,3.60
2022-11-20T16:15:29.209Z,2.70
2022-11-20T16:17:56.192Z,2.67
2022-11-20T16:20:23.294Z,3.90
2022-11-20T16:22:51.029Z,3.40
2022-11-20T16:25:18.296Z,3.23
2022-11-20T16:27:45.216Z,3.97
2022-11-20T16:30:12.490Z,3.40
2022-11-20T16:32:39.874Z,2.93
2022-11-20T16:35:08.509Z,4.47
2022-11-20T16:37:35.526Z,3.80
2022-11-20T16:40:02.629Z,3.47
2022-11-20T16:42:34.124Z,3.33
2022-11-20T16:45:01.059Z,3.77
2022-11-20T16:47:27.934Z,3.80
2022-11-20T16:49:54.824Z,4.60
2022-11-20T16:52:22.200Z,3.30
2022-11-20T16:54:49.983Z,2.73
2022-11-20T16:57:16.964Z,3.00
2022-11-20T16:59:43.923Z,3.00
2022-11-20T17:02:11.575Z,3.03
2022-11-20T17:04:38.732Z,3.30
2022-11-20T17:07:08.121Z,3.20
2022-11-20T17:09:35.451Z,5.30
2022-11-20T17:12:02.460Z,3.90
2022-11-20T17:14:29.573Z,4.27
2022-11-20T17:16:57.042Z,4.27
2022-11-20T17:19:24.304Z,4.97
2022-11-20T17:21:51.302Z,4.40
2022-11-20T17:24:21.769Z,4.53
2022-11-20T17:26:49.511Z,5.33
2022-11-20T17:29:19.129Z,4.70
2022-11-20T17:31:46.646Z,4.30
2022-11-20T17:34:15.340Z,6.70
2022-11-20T17:36:45.876Z,8.73
2022-11-20T17:39:14.911Z,4.87
2022-11-20T17:41:42.266Z,4.90
2022-11-20T17:44:13.222Z,4.70
2022-11-20T17:46:40.347Z,4.00
2022-11-20T17:49:07.809Z,3.67
2022-11-20T17:51:35.496Z,7.43
2022-11-20T17:54:05.388Z,3.57
2022-11-20T17:56:52.453Z,5.07
2022-11-20T17:59:19.910Z,4.80
2022-11-20T18:01:47.198Z,4.13
2022-11-20T18:04:14.866Z,3.70
2022-11-20T18:06:42.819Z,4.10
2022-11-20T18:09:10.137Z,3.77
2022-11-20T18:11:39.767Z,5.37
2022-11-20T18:14:29.087Z,5.33
2022-11-20T18:16:58.847Z,4.70
2022-11-20T18:19:32.377Z,7.73
2022-11-20T18:22:01.907Z,3.43
2022-11-20T18:24:29.121Z,3.90
2022-11-20T18:26:57.870Z,5.00
2022-11-20T18:29:25.877Z,3.97
2022-11-20T18:31:53.964Z,3.87
2022-11-20T18:34:21.866Z,4.37
2022-11-20T18:36:49.442Z,2.93
2022-11-20T18:39:18.688Z,7.70
2022-11-20T18:42:04.438Z,3.93
2022-11-20T18:44:50.988Z,4.30
2022-11-20T18:47:23.444Z,3.60
2022-11-20T18:49:53.238Z,3.00
2022-11-20T18:52:27.826Z,2.83
2022-11-20T18:54:55.197Z,3.30
2022-11-20T18:57:25.618Z,3.30
2022-11-20T18:59:54.442Z,2.13
2022-11-20T19:02:21.933Z,2.70
2022-11-20T19:04:48.999Z,2.67
2022-11-20T19:07:16.416Z,2.10
2022-11-20T19:09:45.483Z,2.23
2022-11-20T19:12:12.979Z,2.47
2022-11-20T19:14:40.083Z,3.00
2022-11-20T19:17:08.400Z,2.77
2022-11-20T19:19:35.633Z,3.33
2022-11-20T19:22:02.872Z,3.00
2022-11-20T19:24:30.087Z,3.63
2022-11-20T19:26:57.890Z,2.50
2022-11-20T19:29:25.984Z,2.70
2022-11-20T19:31:54.060Z,3.57
2022-11-20T19:34:28.732Z,2.47
2022-11-20T19:36:55.966Z,2.40
2022-11-20T19:39:23.643Z,2.33
2022-11-20T19:41:52.856Z,5.10
2022-11-20T19:44:20.309Z,2.30
2022-11-20T19:46:47.118Z,2.30
2022-11-20T19:49:15.121Z,3.30
2022-11-20T19:51:50.148Z,3.33
2022-11-20T19:54:18.984Z,2.17
2022-11-20T19:56:47.470Z,1.83
2022-11-20T19:59:14.923Z,1.83
2022-11-20T20:01:42.783Z,2.60
2022-11-20T20:04:10.218Z,2.80
2022-11-20T20:06:39.293Z,2.13
2022-11-20T20:09:09.054Z,1.60
2022-11-20T20:11:37.275Z,1.70
2022-11-20T20:14:10.701Z,2.07
2022-11-20T20:16:38.075Z,2.43
2022-11-20T20:19:06.144Z,1.70
2022-11-20T20:21:37.391Z,1.50
2022-11-20T20:24:04.945Z,1.70
2022-11-20T20:26:33.367Z,1.60
2022-11-20T20:29:02.374Z,1.70
2022-11-20T20:31:31.387Z,1.47
2022-11-20T20:33:59.103Z,1.80
2022-11-20T20:36:26.526Z,1.70
2022-11-20T20:39:03.089Z,1.70
2022-11-20T20:41:31.236Z,1.60
2022-11-20T20:44:16.671Z,1.60
2022-11-20T20:46:43.913Z,1.60
2022-11-20T20:49:11.538Z,1.70
2022-11-20T20:51:38.965Z,1.60
2022-11-20T20:54:06.984Z,2.37
2022-11-20T20:56:34.276Z,1.70
2022-11-20T20:59:01.500Z,1.80
2022-11-20T21:01:29.668Z,1.70
2022-11-20T21:03:57.249Z,1.50
2022-11-20T21:06:24.420Z,1.63
2022-11-20T21:08:51.671Z,1.60
2022-11-20T21:11:20.359Z,2.00
2022-11-20T21:13:48.597Z,1.57
2022-11-20T21:16:18.178Z,1.47
2022-11-20T21:18:45.509Z,2.83
2022-11-20T21:21:33.188Z,1.60
2022-11-20T21:24:00.227Z,1.50
2022-11-20T21:26:27.681Z,1.60
2022-11-20T21:28:56.602Z,1.50
2022-11-20T21:31:26.685Z,1.63
2022-11-20T21:33:55.627Z,2.30
2022-11-20T21:36:25.705Z,1.40
2022-11-20T21:38:56.857Z,1.47
2022-11-20T21:41:26.407Z,2.00
2022-11-20T21:44:23.998Z,1.73
2022-11-20T21:46:43.506Z,1.60
2022-11-20T21:49:11.178Z,1.60
2022-11-20T21:51:38.708Z,8.40
2022-11-20T21:54:05.686Z,1.50
2022-11-20T21:56:32.665Z,1.60
2022-11-20T21:58:59.529Z,1.60
2022-11-20T22:01:29.322Z,1.60
2022-11-20T22:03:59.040Z,1.80
2022-11-20T22:06:29.750Z,1.93
2022-11-20T22:08:57.085Z,2.80
2022-11-20T22:11:24.296Z,1.80
2022-11-20T22:14:10.119Z,1.83
2022-11-20T22:16:38.025Z,2.03
2022-11-20T22:19:05.778Z,1.40
2022-11-20T22:21:33.616Z,2.47
2022-11-20T22:24:00.890Z,1.70
2022-11-20T22:26:30.014Z,1.60
2022-11-20T22:28:59.926Z,2.47
2022-11-20T22:31:29.451Z,1.50
2022-11-20T22:33:57.591Z,2.67
2022-11-20T22:36:28.941Z,1.67
2022-11-20T22:38:56.460Z,1.90
2022-11-20T22:41:28.134Z,3.30
2022-11-20T22:44:06.874Z,2.53
2022-11-20T22:46:35.780Z,2.57
2022-11-20T22:49:05.470Z,2.07
2022-11-20T22:51:35.226Z,2.10
2022-11-20T22:54:03.616Z,1.97
2022-11-20T22:56:30.999Z,3.20
2022-11-20T22:58:57.941Z,2.00
2022-11-20T23:01:27.599Z,3.10
2022-11-20T23:04:03.568Z,2.30
2022-11-20T23:06:34.172Z,1.60
2022-11-20T23:09:01.681Z,2.07
2022-11-20T23:11:30.856Z,2.10
2022-11-20T23:14:00.338Z,2.20
2022-11-20T23:16:29.187Z,3.70
2022-11-20T23:19:01.217Z,2.00
2022-11-20T23:21:28.041Z,1.97
2022-11-20T23:23:56.810Z,2.20
2022-11-20T23:26:26.031Z,1.80
2022-11-20T23:28:57.869Z,2.20
2022-11-20T23:31:26.493Z,2.50
2022-11-20T23:33:53.900Z,1.80
2022-11-20T23:36:21.217Z,2.43
2022-11-20T23:38:48.059Z,1.60
2022-11-20T23:41:15.233Z,1.70
2022-11-20T23:43:42.292Z,1.50
2022-11-20T23:46:15.143Z,2.17
2022-11-20T23:48:45.072Z,1.83
2022-11-20T23:51:12.530Z,2.00
2022-11-20T23:53:39.387Z,1.80
2022-11-20T23:56:06.380Z,1.73
2022-11-20T23:58:38.552Z,1.97
